createdAt,value
2018-11-27T00:00:31.749Z,27.47
2018-11-27T00:03:02.770Z,27.67
2018-11-27T00:05:32.386Z,27.40
2018-11-27T00:08:01.500Z,23.57
2018-11-27T00:10:33.540Z,29.93
2018-11-27T00:13:02.369Z,26.47
2018-11-27T00:15:31.170Z,26.27
2018-11-27T00:18:00.175Z,26.63
2018-11-27T00:20:29.150Z,24.03
2018-11-27T00:22:57.996Z,27.87
2018-11-27T00:25:26.865Z,23.83
2018-11-27T00:27:55.801Z,28.70
2018-11-27T00:30:24.640Z,25.13
2018-11-27T00:32:53.487Z,21.37
2018-11-27T00:35:22.301Z,22.07
2018-11-27T00:37:51.131Z,24.67
2018-11-27T00:40:23.811Z,21.53
2018-11-27T00:42:52.670Z,21.83
2018-11-27T00:45:21.898Z,27.27
2018-11-27T00:47:51.283Z,24.47
2018-11-27T00:50:22.531Z,25.23
2018-11-27T00:52:51.513Z,23.93
2018-11-27T00:55:21.129Z,21.33
2018-11-27T00:57:53.518Z,20.90
2018-11-27T01:00:23.439Z,24.17
2018-11-27T01:02:52.337Z,22.43
2018-11-27T01:05:22.635Z,21.43
2018-11-27T01:07:51.495Z,22.80
2018-11-27T01:10:23.435Z,21.33
2018-11-27T01:12:52.568Z,23.40
2018-11-27T01:15:21.418Z,30.03
2018-11-27T01:17:53.628Z,22.53
2018-11-27T01:20:23.032Z,19.23
2018-11-27T01:22:51.873Z,21.57
2018-11-27T01:25:20.716Z,22.57
2018-11-27T01:27:49.567Z,24.50
2018-11-27T01:30:20.179Z,21.70
2018-11-27T01:32:49.367Z,23.27
2018-11-27T01:35:19.481Z,20.93
2018-11-27T01:37:49.167Z,19.87
2018-11-27T01:40:19.233Z,19.23
2018-11-27T01:42:49.165Z,20.30
2018-11-27T01:45:19.119Z,19.07
2018-11-27T01:47:48.062Z,20.80
2018-11-27T01:50:17.818Z,20.63
2018-11-27T01:52:46.834Z,20.77
2018-11-27T01:55:16.652Z,20.63
2018-11-27T01:57:45.596Z,21.67
2018-11-27T02:00:20.773Z,24.13
2018-11-27T02:02:50.127Z,22.53
2018-11-27T02:05:18.994Z,21.00
2018-11-27T02:07:47.797Z,24.43
2018-11-27T02:10:16.594Z,19.67
2018-11-27T02:12:46.391Z,21.30
2018-11-27T02:15:22.475Z,23.53
2018-11-27T02:17:51.339Z,21.43
2018-11-27T02:20:20.274Z,21.90
2018-11-27T02:22:49.108Z,20.77
2018-11-27T02:25:22.166Z,21.13
2018-11-27T02:27:51.154Z,21.77
2018-11-27T02:30:21.508Z,19.93
2018-11-27T02:32:50.352Z,22.43
2018-11-27T02:35:22.250Z,24.80
2018-11-27T02:37:52.167Z,19.27
2018-11-27T02:40:21.039Z,21.27
2018-11-27T02:42:50.091Z,20.13
2018-11-27T02:45:23.236Z,22.23
2018-11-27T02:47:52.886Z,19.77
2018-11-27T02:50:22.841Z,18.87
2018-11-27T02:52:51.789Z,19.57
2018-11-27T02:55:25.247Z,21.80
2018-11-27T02:57:54.240Z,20.60
2018-11-27T03:00:26.289Z,20.77
2018-11-27T03:02:55.372Z,22.73
2018-11-27T03:05:29.909Z,24.40
2018-11-27T03:07:58.761Z,20.27
2018-11-27T03:10:27.648Z,22.13
2018-11-27T03:12:56.500Z,20.93
2018-11-27T03:15:25.427Z,23.03
2018-11-27T03:17:54.254Z,20.77
2018-11-27T03:20:23.095Z,21.03
2018-11-27T03:22:51.980Z,20.17
2018-11-27T03:25:22.299Z,18.43
2018-11-27T03:27:52.258Z,21.00
2018-11-27T03:30:23.055Z,22.77
2018-11-27T03:32:51.947Z,22.07
2018-11-27T03:35:21.760Z,22.33
2018-11-27T03:37:50.915Z,20.17
2018-11-27T03:40:23.084Z,19.30
2018-11-27T03:42:52.020Z,21.40
2018-11-27T03:45:21.468Z,20.27
2018-11-27T03:47:50.307Z,22.47
2018-11-27T03:50:23.464Z,19.13
2018-11-27T03:52:52.357Z,22.20
2018-11-27T03:55:21.246Z,19.90
2018-11-27T03:57:50.682Z,20.80
2018-11-27T04:00:22.893Z,16.87
2018-11-27T04:02:55.951Z,20.60
2018-11-27T04:05:25.830Z,22.83
2018-11-27T04:07:54.750Z,19.83
2018-11-27T04:10:23.660Z,23.37
2018-11-27T04:12:52.642Z,21.60
2018-11-27T04:15:21.526Z,20.93
2018-11-27T04:17:50.373Z,19.93
2018-11-27T04:20:19.194Z,20.00
2018-11-27T04:22:48.049Z,18.87
2018-11-27T04:25:17.848Z,19.33
2018-11-27T04:27:47.344Z,19.13
2018-11-27T04:30:19.964Z,21.33
2018-11-27T04:32:48.795Z,18.87
2018-11-27T04:35:18.654Z,18.43
2018-11-27T04:37:47.614Z,20.23
2018-11-27T04:40:18.414Z,17.57
2018-11-27T04:42:47.262Z,21.70
2018-11-27T04:45:18.957Z,20.87
2018-11-27T04:47:47.796Z,20.00
2018-11-27T04:50:17.412Z,19.43
2018-11-27T04:52:46.259Z,20.20
2018-11-27T04:55:17.341Z,20.27
2018-11-27T04:57:47.090Z,22.07
2018-11-27T05:00:17.957Z,20.77
2018-11-27T05:02:46.784Z,18.23
2018-11-27T05:05:15.679Z,16.17
2018-11-27T05:07:44.539Z,19.60
2018-11-27T05:10:14.853Z,23.40
2018-11-27T05:12:43.982Z,20.23
2018-11-27T05:15:14.950Z,19.63
2018-11-27T05:17:47.964Z,18.37
2018-11-27T05:20:13.486Z,18.67
2018-11-27T05:22:42.355Z,17.60
2018-11-27T05:25:13.119Z,16.93
2018-11-27T05:27:43.478Z,16.13
2018-11-27T05:30:16.389Z,19.03
2018-11-27T05:32:45.318Z,19.07
2018-11-27T05:35:19.263Z,21.93
2018-11-27T05:37:49.190Z,19.97
2018-11-27T05:40:20.924Z,18.67
2018-11-27T05:42:52.135Z,19.00
2018-11-27T05:45:22.120Z,18.97
2018-11-27T05:47:51.052Z,18.40
2018-11-27T05:50:20.824Z,17.77
2018-11-27T05:52:49.667Z,18.63
2018-11-27T05:55:18.630Z,19.70
2018-11-27T05:57:48.798Z,18.97
2018-11-27T06:00:19.662Z,20.70
2018-11-27T06:02:50.910Z,21.93
2018-11-27T06:05:21.583Z,16.07
2018-11-27T06:07:50.432Z,19.17
2018-11-27T06:10:20.195Z,19.07
2018-11-27T06:12:49.020Z,18.87
2018-11-27T06:15:21.044Z,18.73
2018-11-27T06:17:51.886Z,20.97
2018-11-27T06:20:21.541Z,18.47
2018-11-27T06:22:50.598Z,20.23
2018-11-27T06:25:20.512Z,19.83
2018-11-27T06:27:52.566Z,18.60
2018-11-27T06:30:23.541Z,19.37
2018-11-27T06:32:52.403Z,16.83
2018-11-27T06:35:23.521Z,20.70
2018-11-27T06:37:52.374Z,16.83
2018-11-27T06:40:22.479Z,22.00
2018-11-27T06:42:51.354Z,19.60
2018-11-27T06:45:20.837Z,21.73
2018-11-27T06:47:50.558Z,18.80
2018-11-27T06:50:20.268Z,20.97
2018-11-27T06:52:49.108Z,22.60
2018-11-27T06:55:18.971Z,26.03
2018-11-27T06:57:47.816Z,24.43
2018-11-27T07:00:18.693Z,27.63
2018-11-27T07:02:47.590Z,23.80
2018-11-27T07:05:16.469Z,25.20
2018-11-27T07:07:45.466Z,21.73
2018-11-27T07:10:31.546Z,23.20
2018-11-27T07:13:07.069Z,24.43
2018-11-27T07:15:36.045Z,24.00
2018-11-27T07:18:05.973Z,23.37
2018-11-27T07:20:34.987Z,23.17
2018-11-27T07:23:03.966Z,20.10
2018-11-27T07:25:32.878Z,23.40
2018-11-27T07:28:01.783Z,20.23
2018-11-27T07:30:30.684Z,19.40
2018-11-27T07:32:59.570Z,21.73
2018-11-27T07:35:28.463Z,20.37
2018-11-27T07:37:57.359Z,22.03
2018-11-27T07:40:27.767Z,19.17
2018-11-27T07:43:01.408Z,22.27
2018-11-27T07:45:30.274Z,22.30
2018-11-27T07:47:59.218Z,21.30
2018-11-27T07:50:28.312Z,25.97
2018-11-27T07:52:57.229Z,29.83
2018-11-27T07:55:26.117Z,23.77
2018-11-27T07:57:55.540Z,20.03
2018-11-27T08:00:25.996Z,21.63
2018-11-27T08:02:56.793Z,22.23
2018-11-27T08:05:34.675Z,22.73
2018-11-27T08:08:03.537Z,31.73
2018-11-27T08:10:33.032Z,26.43
2018-11-27T08:13:01.855Z,24.40
2018-11-27T08:15:31.174Z,27.93
2018-11-27T08:18:00.021Z,20.77
2018-11-27T08:20:30.093Z,23.07
2018-11-27T08:22:59.034Z,20.40
2018-11-27T08:25:27.857Z,23.07
2018-11-27T08:27:56.693Z,25.03
2018-11-27T08:30:25.730Z,22.83
2018-11-27T08:32:55.259Z,21.53
2018-11-27T08:35:25.474Z,22.37
2018-11-27T08:37:55.391Z,22.23
2018-11-27T08:40:25.314Z,22.17
2018-11-27T08:42:54.178Z,30.00
2018-11-27T08:45:23.952Z,28.90
2018-11-27T08:47:54.551Z,26.10
2018-11-27T08:50:24.354Z,32.27
2018-11-27T08:53:02.878Z,29.73
2018-11-27T08:55:36.492Z,32.20
2018-11-27T08:58:07.611Z,30.17
2018-11-27T09:00:36.241Z,24.77
2018-11-27T09:03:05.067Z,30.27
2018-11-27T09:05:33.543Z,25.03
2018-11-27T09:08:02.010Z,24.73
2018-11-27T09:10:30.503Z,24.97
2018-11-27T09:12:59.153Z,27.50
2018-11-27T09:15:27.461Z,24.23
2018-11-27T09:17:58.641Z,25.37
2018-11-27T09:20:27.214Z,26.93
2018-11-27T09:22:55.771Z,26.27
2018-11-27T09:25:24.266Z,22.93
2018-11-27T09:27:52.738Z,26.63
2018-11-27T09:30:21.844Z,25.83
2018-11-27T09:32:50.439Z,22.97
2018-11-27T09:35:19.010Z,25.30
2018-11-27T09:37:47.470Z,24.50
2018-11-27T09:40:17.219Z,24.93
2018-11-27T09:42:45.772Z,23.33
2018-11-27T09:45:21.684Z,25.33
2018-11-27T09:47:50.721Z,23.37
2018-11-27T09:50:19.190Z,24.03
2018-11-27T09:52:47.704Z,22.73
2018-11-27T09:55:19.775Z,26.60
2018-11-27T09:57:48.373Z,21.93
2018-11-27T10:00:17.606Z,24.70
2018-11-27T10:02:46.155Z,22.87
2018-11-27T10:05:14.878Z,24.07
2018-11-27T10:07:43.361Z,27.03
2018-11-27T10:10:13.348Z,23.43
2018-11-27T10:12:41.884Z,21.03
2018-11-27T10:15:27.729Z,23.93
2018-11-27T10:17:56.818Z,23.20
2018-11-27T10:20:25.937Z,27.10
2018-11-27T10:22:54.437Z,24.47
2018-11-27T10:25:22.910Z,27.40
2018-11-27T10:27:51.455Z,24.03
2018-11-27T10:30:20.834Z,22.53
2018-11-27T10:32:49.901Z,26.37
2018-11-27T10:35:22.117Z,20.17
2018-11-27T10:37:50.705Z,23.60
2018-11-27T10:40:19.162Z,24.47
2018-11-27T10:42:47.756Z,23.33
2018-11-27T10:45:17.751Z,24.60
2018-11-27T10:47:46.939Z,35.77
2018-11-27T10:50:15.940Z,34.50
2018-11-27T10:52:45.130Z,28.43
2018-11-27T10:55:14.001Z,30.53
2018-11-27T10:57:42.660Z,35.37
2018-11-27T11:00:21.268Z,33.50
2018-11-27T11:02:55.412Z,40.30
2018-11-27T11:05:24.987Z,36.33
2018-11-27T11:07:53.615Z,25.53
2018-11-27T11:10:22.121Z,27.97
2018-11-27T11:12:51.155Z,29.00
2018-11-27T11:15:20.049Z,29.63
2018-11-27T11:17:48.905Z,31.60
2018-11-27T11:20:18.001Z,23.53
2018-11-27T11:22:46.898Z,26.13
2018-11-27T11:25:23.549Z,27.20
2018-11-27T11:27:53.922Z,26.00
2018-11-27T11:30:23.001Z,34.43
2018-11-27T11:32:52.015Z,26.60
2018-11-27T11:35:20.858Z,22.53
2018-11-27T11:37:50.068Z,22.40
2018-11-27T11:40:21.198Z,25.20
2018-11-27T11:42:51.623Z,24.60
2018-11-27T11:45:20.548Z,23.03
2018-11-27T11:47:49.460Z,23.77
2018-11-27T11:50:22.494Z,32.20
2018-11-27T11:52:55.490Z,26.67
2018-11-27T11:55:24.040Z,39.63
2018-11-27T11:57:52.534Z,42.40
2018-11-27T12:00:23.170Z,55.87
2018-11-27T12:02:51.749Z,48.40
2018-11-27T12:05:25.031Z,25.50
2018-11-27T12:07:48.938Z,44.67
2018-11-27T12:10:17.657Z,35.53
2018-11-27T12:12:46.499Z,34.80
2018-11-27T12:15:16.426Z,29.93
2018-11-27T12:17:45.842Z,32.70
2018-11-27T12:20:15.764Z,23.27
2018-11-27T12:22:52.272Z,25.63
2018-11-27T12:25:24.230Z,31.13
2018-11-27T12:27:50.104Z,27.67
2018-11-27T12:30:20.191Z,27.93
2018-11-27T12:32:49.153Z,29.47
2018-11-27T12:35:18.489Z,25.93
2018-11-27T12:37:47.462Z,26.03
2018-11-27T12:40:18.338Z,25.70
2018-11-27T12:42:47.324Z,33.97
2018-11-27T12:45:18.390Z,27.10
2018-11-27T12:47:47.271Z,24.97
2018-11-27T12:50:17.723Z,35.20
2018-11-27T12:52:46.637Z,29.17
2018-11-27T12:55:16.840Z,28.73
2018-11-27T12:57:45.730Z,22.37
2018-11-27T13:00:19.532Z,28.07
2018-11-27T13:02:48.686Z,27.37
2018-11-27T13:05:26.790Z,26.60
2018-11-27T13:08:00.062Z,24.10
2018-11-27T13:10:28.966Z,26.37
2018-11-27T13:12:57.867Z,24.07
2018-11-27T13:15:26.755Z,24.70
2018-11-27T13:17:55.699Z,24.43
2018-11-27T13:20:24.537Z,27.67
2018-11-27T13:22:53.470Z,25.40
2018-11-27T13:25:23.954Z,26.93
2018-11-27T13:27:54.106Z,23.93
2018-11-27T13:30:32.245Z,24.40
2018-11-27T13:33:05.417Z,24.93
2018-11-27T13:35:34.292Z,23.63
2018-11-27T13:38:03.160Z,27.97
2018-11-27T13:40:32.040Z,33.00
2018-11-27T13:43:01.591Z,26.03
2018-11-27T13:45:30.427Z,27.30
2018-11-27T13:47:59.326Z,29.63
2018-11-27T13:50:28.212Z,29.27
2018-11-27T13:52:57.123Z,43.80
2018-11-27T13:55:26.002Z,29.27
2018-11-27T13:57:55.064Z,29.00
2018-11-27T14:00:23.959Z,37.43
2018-11-27T14:02:55.070Z,25.27
2018-11-27T14:05:25.212Z,29.90
2018-11-27T14:07:54.057Z,26.23
2018-11-27T14:10:22.970Z,28.37
2018-11-27T14:12:51.954Z,29.73
2018-11-27T14:15:24.183Z,30.20
2018-11-27T14:17:52.854Z,25.90
2018-11-27T14:20:21.813Z,28.87
2018-11-27T14:22:51.268Z,31.70
2018-11-27T14:25:20.296Z,30.73
2018-11-27T14:27:50.224Z,29.53
2018-11-27T14:30:20.961Z,31.37
2018-11-27T14:32:50.257Z,26.97
2018-11-27T14:35:20.047Z,25.57
2018-11-27T14:37:52.288Z,28.20
2018-11-27T14:40:26.053Z,38.33
2018-11-27T14:42:54.959Z,31.03
2018-11-27T14:45:25.209Z,32.07
2018-11-27T14:47:54.322Z,29.53
2018-11-27T14:50:22.902Z,29.53
2018-11-27T14:52:51.554Z,29.70
2018-11-27T14:55:21.792Z,34.53
2018-11-27T14:57:50.337Z,30.93
2018-11-27T15:00:19.611Z,37.03
2018-11-27T15:02:48.187Z,28.93
2018-11-27T15:05:21.103Z,33.73
2018-11-27T15:07:49.626Z,29.27
2018-11-27T15:10:18.221Z,28.63
2018-11-27T15:12:46.786Z,33.43
2018-11-27T15:15:15.254Z,29.53
2018-11-27T15:17:43.729Z,32.30
2018-11-27T15:20:15.691Z,31.47
2018-11-27T15:22:44.255Z,34.20
2018-11-27T15:25:12.791Z,33.07
2018-11-27T15:27:41.338Z,31.83
2018-11-27T15:30:11.558Z,29.30
2018-11-27T15:32:40.119Z,31.40
2018-11-27T15:35:09.073Z,27.13
2018-11-27T15:37:37.672Z,27.33
2018-11-27T15:40:11.105Z,34.73
2018-11-27T15:42:39.597Z,33.47
2018-11-27T15:45:09.069Z,31.43
2018-11-27T15:47:37.653Z,29.70
2018-11-27T15:50:07.185Z,31.93
2018-11-27T15:52:37.310Z,32.47
2018-11-27T15:55:08.065Z,32.87
2018-11-27T15:57:36.631Z,29.43
2018-11-27T16:00:05.660Z,30.03
2018-11-27T16:02:34.197Z,33.87
2018-11-27T16:05:02.723Z,30.50
2018-11-27T16:07:31.275Z,30.97
2018-11-27T16:09:59.866Z,35.47
2018-11-27T16:12:28.524Z,36.10
2018-11-27T16:14:57.046Z,36.80
2018-11-27T16:17:25.494Z,39.30
2018-11-27T16:19:53.997Z,44.53
2018-11-27T16:22:22.523Z,35.37
2018-11-27T16:24:51.057Z,33.43
2018-11-27T16:27:19.584Z,35.57
2018-11-27T16:29:48.205Z,35.63
2018-11-27T16:32:16.805Z,31.03
2018-11-27T16:34:45.777Z,39.23
2018-11-27T16:37:14.270Z,38.40
2018-11-27T16:39:42.850Z,35.67
2018-11-27T16:42:12.328Z,37.40
2018-11-27T16:44:39.973Z,32.13
2018-11-27T16:47:08.516Z,43.67
2018-11-27T16:49:37.033Z,40.07
2018-11-27T16:52:05.784Z,42.63
2018-11-27T16:54:34.381Z,37.70
2018-11-27T16:57:03.026Z,34.17
2018-11-27T16:59:31.554Z,36.60
2018-11-27T17:02:00.166Z,40.67
2018-11-27T17:04:28.714Z,38.60
2018-11-27T17:06:57.313Z,36.53
2018-11-27T17:09:25.854Z,41.20
2018-11-27T17:11:54.418Z,36.57
2018-11-27T17:14:23.004Z,38.67
2018-11-27T17:16:51.546Z,38.17
2018-11-27T17:19:20.156Z,33.57
2018-11-27T17:21:48.695Z,43.60
2018-11-27T17:24:17.243Z,36.50
2018-11-27T17:26:45.770Z,36.03
2018-11-27T17:29:14.310Z,38.57
2018-11-27T17:31:42.815Z,34.30
2018-11-27T17:34:12.435Z,32.83
2018-11-27T17:36:41.022Z,36.27
2018-11-27T17:39:10.198Z,36.43
2018-11-27T17:41:39.474Z,32.47
2018-11-27T17:44:11.248Z,39.20
2018-11-27T17:46:39.792Z,34.90
2018-11-27T17:49:08.379Z,45.03
2018-11-27T17:51:36.972Z,46.50
2018-11-27T17:54:05.621Z,45.20
2018-11-27T17:56:34.709Z,30.00
2018-11-27T17:59:03.596Z,39.93
2018-11-27T18:01:32.329Z,38.83
2018-11-27T18:04:01.110Z,33.20
2018-11-27T18:06:29.645Z,33.43
2018-11-27T18:08:58.192Z,35.57
2018-11-27T18:11:26.659Z,27.13
2018-11-27T18:13:55.125Z,31.30
2018-11-27T18:16:23.648Z,38.37
2018-11-27T18:18:52.313Z,41.17
2018-11-27T18:21:20.845Z,54.73
2018-11-27T18:23:49.330Z,34.03
2018-11-27T18:26:17.820Z,50.70
2018-11-27T18:28:46.420Z,49.07
2018-11-27T18:31:14.871Z,55.83
2018-11-27T18:33:43.446Z,44.33
2018-11-27T18:36:11.993Z,36.60
2018-11-27T18:38:40.439Z,37.20
2018-11-27T18:41:08.909Z,36.50
2018-11-27T18:43:37.533Z,49.00
2018-11-27T18:46:06.193Z,31.87
2018-11-27T18:48:34.789Z,37.57
2018-11-27T18:51:03.484Z,42.73
2018-11-27T18:53:31.987Z,41.37
2018-11-27T18:56:00.492Z,38.37
2018-11-27T18:58:28.969Z,33.30
2018-11-27T19:00:57.430Z,29.80
2018-11-27T19:03:26.022Z,29.90
2018-11-27T19:05:54.571Z,34.37
2018-11-27T19:08:23.198Z,35.90
2018-11-27T19:10:51.698Z,40.33
2018-11-27T19:13:20.266Z,32.00
2018-11-27T19:15:49.565Z,31.60
2018-11-27T19:18:20.441Z,41.53
2018-11-27T19:20:48.922Z,29.33
2018-11-27T19:28:07.825Z,32.43
2018-11-27T19:30:36.357Z,27.27
2018-11-27T19:33:05.220Z,35.33
2018-11-27T19:35:40.020Z,36.03
2018-11-27T19:38:14.642Z,23.73
2018-11-27T19:40:43.735Z,24.93
2018-11-27T19:43:13.610Z,24.27
2018-11-27T19:45:42.148Z,28.33
2018-11-27T19:48:10.994Z,30.53
2018-11-27T19:50:39.829Z,33.07
2018-11-27T19:53:12.282Z,33.17
2018-11-27T19:55:39.182Z,27.27
2018-11-27T19:58:08.243Z,26.23
2018-11-27T20:00:36.991Z,39.77
2018-11-27T20:03:06.328Z,24.67
2018-11-27T20:05:34.823Z,35.47
2018-11-27T20:08:03.404Z,29.93
2018-11-27T20:10:32.221Z,30.03
2018-11-27T20:13:00.709Z,62.03
2018-11-27T20:15:29.469Z,32.43
2018-11-27T20:17:58.099Z,55.17
2018-11-27T20:20:28.905Z,35.83
2018-11-27T20:22:57.815Z,39.67
2018-11-27T20:25:26.279Z,39.40
2018-11-27T20:27:55.134Z,38.03
2018-11-27T20:30:25.374Z,27.83
2018-11-27T20:32:58.707Z,27.20
2018-11-27T20:35:28.689Z,22.80
2018-11-27T20:37:57.694Z,35.20
2018-11-27T20:40:26.264Z,27.10
2018-11-27T20:42:55.450Z,22.90
2018-11-27T20:45:26.046Z,26.97
2018-11-27T20:47:55.421Z,41.63
2018-11-27T20:50:23.938Z,32.10
2018-11-27T20:52:52.501Z,26.47
2018-11-27T20:55:21.588Z,34.57
2018-11-27T20:57:50.878Z,23.60
2018-11-27T21:00:21.190Z,22.53
2018-11-27T21:02:49.942Z,24.63
2018-11-27T21:05:18.531Z,47.77
2018-11-27T21:07:48.253Z,23.47
2018-11-27T21:10:16.743Z,24.57
2018-11-27T21:12:45.343Z,27.17
2018-11-27T21:15:14.470Z,33.33
2018-11-27T21:17:42.965Z,21.77
2018-11-27T21:20:12.077Z,26.30
2018-11-27T21:22:40.736Z,35.80
2018-11-27T21:25:11.835Z,53.27
2018-11-27T21:27:40.392Z,35.10
2018-11-27T21:30:09.945Z,21.23
2018-11-27T21:32:38.453Z,29.73
2018-11-27T21:35:07.541Z,42.87
2018-11-27T21:37:36.113Z,35.93
2018-11-27T21:40:05.230Z,25.07
2018-11-27T21:42:33.694Z,25.80
2018-11-27T21:45:02.231Z,25.13
2018-11-27T21:47:30.804Z,22.47
2018-11-27T21:49:59.299Z,26.23
2018-11-27T21:52:27.775Z,30.00
2018-11-27T21:54:56.309Z,25.73
2018-11-27T21:57:24.940Z,29.63
2018-11-27T21:59:53.836Z,29.37
2018-11-27T22:02:22.497Z,27.23
2018-11-27T22:04:50.997Z,28.13
2018-11-27T22:07:19.614Z,25.03
2018-11-27T22:09:48.265Z,31.00
2018-11-27T22:12:16.738Z,31.10
2018-11-27T22:14:45.255Z,35.30
2018-11-27T22:17:13.912Z,25.83
2018-11-27T22:19:42.389Z,26.50
2018-11-27T22:22:10.832Z,37.50
2018-11-27T22:24:40.032Z,27.37
2018-11-27T22:27:08.549Z,26.50
2018-11-27T22:29:37.359Z,25.60
2018-11-27T22:32:05.961Z,33.33
2018-11-27T22:34:34.449Z,34.40
2018-11-27T22:37:04.243Z,29.70
2018-11-27T22:39:32.771Z,31.93
2018-11-27T22:42:01.285Z,31.20
2018-11-27T22:44:29.790Z,34.77
2018-11-27T22:46:58.285Z,34.03
2018-11-27T22:49:26.757Z,38.27
2018-11-27T22:51:55.221Z,34.13
2018-11-27T22:54:23.794Z,36.63
2018-11-27T22:56:52.307Z,31.80
2018-11-27T22:59:20.858Z,34.57
2018-11-27T23:01:49.358Z,35.37
2018-11-27T23:04:17.945Z,38.43
2018-11-27T23:06:46.413Z,34.97
2018-11-27T23:09:14.874Z,40.40
2018-11-27T23:11:43.331Z,40.10
2018-11-27T23:14:11.841Z,42.03
2018-11-27T23:16:40.321Z,42.43
2018-11-27T23:19:08.835Z,42.27
2018-11-27T23:21:37.317Z,41.80
2018-11-27T23:24:05.854Z,36.30
2018-11-27T23:26:34.353Z,31.60
2018-11-27T23:29:02.818Z,36.73
2018-11-27T23:31:31.435Z,36.80
2018-11-27T23:33:59.919Z,35.27
2018-11-27T23:36:28.419Z,33.70
2018-11-27T23:38:56.934Z,37.00
2018-11-27T23:41:25.405Z,35.83
2018-11-27T23:43:53.879Z,33.47
2018-11-27T23:46:22.370Z,37.17
2018-11-27T23:48:50.829Z,36.43
2018-11-27T23:51:19.325Z,37.17
2018-11-27T23:53:47.837Z,37.97
2018-11-27T23:56:16.338Z,46.70
2018-11-27T23:58:44.793Z,38.50
